Time;durP1;ratioP1;P1;durP2;ratioP2;P2;SDS_P1;SDS_P2;PMS_P1;PMS_P2;Temp;Humidity;BMP_temperature;BMP_pressure;BME280_temperature;BME280_humidity;BME280_pressure;Samples;Min_cycle;Max_cycle;Signal;HPM_P1;HPM_P2
2023/10/28 00:00:58;;;;;;;35.28;7.78;;;;;;;10.08;100.00;99224.75;4996491;28;20030;-88
2023/10/28 00:03:24;;;;;;;29.52;7.05;;;;;;;10.11;100.00;99227.19;4997580;28;20048;-88
2023/10/28 00:05:51;;;;;;;24.83;7.05;;;;;;;10.14;100.00;99220.56;4980242;28;20101;-88
2023/10/28 00:08:17;;;;;;;28.55;6.97;;;;;;;10.16;100.00;99222.09;4998579;28;20022;-88
2023/10/28 00:10:44;;;;;;;27.60;7.55;;;;;;;10.17;100.00;99223.81;4961665;28;20038;-89
2023/10/28 00:13:12;;;;;;;35.17;6.35;;;;;;;10.19;100.00;99226.41;4995622;28;20393;-88
2023/10/28 00:15:39;;;;;;;27.17;6.50;;;;;;;10.20;100.00;99226.25;4977108;28;20153;-89
2023/10/28 00:18:04;;;;;;;20.35;6.70;;;;;;;10.25;100.00;99233.97;4995125;28;20476;-88
2023/10/28 00:20:30;;;;;;;18.65;5.80;;;;;;;10.26;100.00;99227.47;4995249;28;20030;-89
2023/10/28 00:22:57;;;;;;;26.33;7.40;;;;;;;10.24;100.00;99230.34;5015792;28;20092;-88
2023/10/28 00:25:27;;;;;;;13.10;5.38;;;;;;;10.27;100.00;99230.03;4998794;28;20419;-88
2023/10/28 00:27:54;;;;;;;25.30;6.63;;;;;;;10.27;100.00;99226.47;4998228;28;20037;-88
2023/10/28 00:30:22;;;;;;;22.85;5.75;;;;;;;10.32;100.00;99235.06;4993596;28;20085;-88
2023/10/28 00:32:49;;;;;;;22.25;5.93;;;;;;;10.30;100.00;99226.16;4982206;28;20022;-88
2023/10/28 00:35:16;;;;;;;15.18;4.80;;;;;;;10.33;100.00;99234.06;4998271;28;20029;-88
2023/10/28 00:37:42;;;;;;;18.90;4.32;;;;;;;10.38;100.00;99228.09;4995448;28;20032;-87
2023/10/28 00:40:09;;;;;;;19.63;3.30;;;;;;;10.40;100.00;99228.81;4998868;28;20022;-88
2023/10/28 00:42:35;;;;;;;12.25;3.70;;;;;;;10.49;100.00;99225.09;4980316;28;20073;-88
2023/10/28 00:45:09;;;;;;;8.77;3.58;;;;;;;10.57;100.00;99232.50;4975874;28;20034;-87
2023/10/28 00:47:38;;;;;;;17.13;2.95;;;;;;;10.53;100.00;99225.66;5010365;28;20116;-88
2023/10/28 00:50:11;;;;;;;25.33;3.47;;;;;;;10.55;100.00;99227.19;4977262;28;20026;-88
2023/10/28 00:52:56;;;;;;;;;;;;;;;10.65;100.00;99227.91;4990305;28;20079;-88
2023/10/28 00:55:23;;;;;;;20.80;2.20;;;;;;;10.68;100.00;99223.16;4996021;28;19959;-87
2023/10/28 00:57:49;;;;;;;10.68;2.58;;;;;;;10.63;100.00;99235.44;4981584;28;20049;-88
2023/10/28 01:00:17;;;;;;;10.05;1.83;;;;;;;10.69;100.00;99227.59;4978150;28;20041;-87
2023/10/28 01:02:44;;;;;;;10.35;2.42;;;;;;;10.70;100.00;99219.22;4977784;28;20361;-89
2023/10/28 01:05:11;;;;;;;7.10;1.40;;;;;;;10.66;100.00;99226.91;4958756;28;20030;-87
2023/10/28 01:07:38;;;;;;;9.38;1.50;;;;;;;10.68;100.00;99220.41;5014281;28;20391;-88
2023/10/28 01:10:05;;;;;;;3.15;1.50;;;;;;;10.63;100.00;99223.66;4980445;28;20117;-88
2023/10/28 01:12:31;;;;;;;7.80;1.70;;;;;;;10.66;100.00;99224.16;4979857;28;20396;-88
2023/10/28 01:14:57;;;;;;;9.95;1.73;;;;;;;10.65;100.00;99222.44;4976295;28;20041;-89
2023/10/28 01:17:25;;;;;;;6.15;1.27;;;;;;;10.65;100.00;99216.97;5010938;28;20151;-88
2023/10/28 01:19:53;;;;;;;7.90;1.42;;;;;;;10.69;100.00;99212.06;4992925;28;20072;-87
2023/10/28 01:22:21;;;;;;;4.63;1.17;;;;;;;10.67;100.00;99216.81;4993053;28;20029;-88
2023/10/28 01:24:47;;;;;;;8.88;1.10;;;;;;;10.65;100.00;99218.84;4979880;28;20041;-88
2023/10/28 01:27:12;;;;;;;6.93;1.15;;;;;;;10.65;100.00;99219.72;4996543;28;20029;-87
2023/10/28 01:29:37;;;;;;;3.83;1.20;;;;;;;10.66;100.00;99220.59;4995910;28;20541;-88
2023/10/28 01:32:04;;;;;;;2.97;1.02;;;;;;;10.59;100.00;99220.38;4996936;28;20113;-89
2023/10/28 01:34:30;;;;;;;7.93;1.20;;;;;;;10.58;100.00;99226.00;4980980;28;20125;-89
2023/10/28 01:36:59;;;;;;;7.10;1.30;;;;;;;10.54;100.00;99233.66;4993724;28;20054;-88
2023/10/28 01:39:25;;;;;;;7.82;1.00;;;;;;;10.52;100.00;99230.25;4969780;28;20038;-88
2023/10/28 01:41:51;;;;;;;5.65;1.30;;;;;;;10.55;100.00;99226.34;4960635;28;20056;-89
2023/10/28 01:44:18;;;;;;;7.13;1.00;;;;;;;10.56;100.00;99230.75;4988690;28;20535;-88
2023/10/28 01:46:44;;;;;;;6.07;1.05;;;;;;;10.57;100.00;99229.75;4996719;28;20381;-88
2023/10/28 01:49:10;;;;;;;5.07;1.02;;;;;;;10.59;100.00;99234.06;4976212;28;20109;-89
2023/10/28 01:51:36;;;;;;;8.30;1.20;;;;;;;10.54;100.00;99230.94;4980493;28;20037;-89
2023/10/28 01:54:03;;;;;;;3.00;0.70;;;;;;;10.53;100.00;99233.84;4981463;28;20140;-89
2023/10/28 01:56:28;;;;;;;1.55;0.88;;;;;;;10.53;100.00;99231.97;4964761;28;20477;-89
2023/10/28 01:58:56;;;;;;;2.17;0.90;;;;;;;10.53;100.00;99229.22;4987533;28;20349;-87
2023/10/28 02:01:25;;;;;;;4.18;0.80;;;;;;;10.51;100.00;99235.88;4979758;28;20120;-88
2023/10/28 02:03:51;;;;;;;2.03;0.70;;;;;;;10.51;100.00;99230.41;4980585;28;20084;-88
2023/10/28 02:06:17;;;;;;;2.92;0.85;;;;;;;10.50;100.00;99228.69;4964017;28;20026;-88
2023/10/28 02:08:42;;;;;;;2.58;0.88;;;;;;;10.43;100.00;99221.13;4991670;28;20509;-88
2023/10/28 02:11:08;;;;;;;4.40;0.75;;;;;;;10.44;100.00;99231.03;4980794;28;20492;-89
2023/10/28 02:13:35;;;;;;;2.50;0.77;;;;;;;10.44;100.00;99227.44;4981657;28;20538;-87
2023/10/28 02:16:01;;;;;;;6.00;1.10;;;;;;;10.38;100.00;99234.44;4996239;28;20030;-88
2023/10/28 02:18:26;;;;;;;7.63;1.10;;;;;;;10.38;100.00;99234.44;4995964;28;20499;-89
2023/10/28 02:20:55;;;;;;;3.97;1.00;;;;;;;10.37;100.00;99231.84;4995984;28;20029;-88
2023/10/28 02:23:20;;;;;;;9.45;1.10;;;;;;;10.32;100.00;99231.44;4973526;28;20056;-88
2023/10/28 02:25:46;;;;;;;8.35;1.20;;;;;;;10.27;100.00;99230.03;4995464;28;20478;-88
2023/10/28 02:28:12;;;;;;;7.30;1.00;;;;;;;10.28;100.00;99228.16;4963686;28;20022;-89
2023/10/28 02:30:40;;;;;;;1.45;1.10;;;;;;;10.32;100.00;99231.44;4979288;28;20444;-88
2023/10/28 02:33:09;;;;;;;2.58;1.30;;;;;;;10.28;100.00;99219.94;4995774;28;20100;-89
2023/10/28 02:35:35;;;;;;;12.00;1.70;;;;;;;10.34;100.00;99222.09;4979539;28;20030;-88
2023/10/28 02:38:01;;;;;;;10.65;1.60;;;;;;;10.29;100.00;99214.31;4995546;28;20522;-88
2023/10/28 02:40:26;;;;;;;4.88;1.35;;;;;;;10.28;100.00;99225.41;4979281;28;20062;-87
2023/10/28 02:42:53;;;;;;;5.63;1.60;;;;;;;10.26;100.00;99225.63;4995402;28;20385;-88
2023/10/28 02:45:20;;;;;;;6.80;1.80;;;;;;;10.30;100.00;99231.63;4993714;28;20124;-89
2023/10/28 02:47:45;;;;;;;6.18;1.90;;;;;;;10.32;100.00;99221.41;4979039;28;20033;-88
2023/10/28 02:50:12;;;;;;;3.58;1.77;;;;;;;10.36;100.00;99222.78;4963241;28;20080;-88
2023/10/28 02:52:37;;;;;;;9.57;1.98;;;;;;;10.30;100.00;99227.00;5013578;28;20030;-87
2023/10/28 02:55:05;;;;;;;6.50;2.00;;;;;;;10.32;100.00;99229.59;4980167;28;20484;-87
2023/10/28 02:57:32;;;;;;;4.63;1.75;;;;;;;10.30;100.00;99231.63;4961482;28;20388;-89
2023/10/28 02:59:57;;;;;;;4.82;1.77;;;;;;;10.30;100.00;99232.47;4992546;28;20387;-88
2023/10/28 03:02:23;;;;;;;9.63;2.20;;;;;;;10.32;100.00;99231.44;4980031;28;20019;-87
2023/10/28 03:04:48;;;;;;;7.63;1.92;;;;;;;10.21;100.00;99230.66;4981116;28;20461;-88
2023/10/28 03:07:14;;;;;;;4.47;1.90;;;;;;;10.20;100.00;99230.84;4983262;28;20037;-88
2023/10/28 03:09:40;;;;;;;7.50;2.50;;;;;;;10.26;100.00;99228.34;4966457;28;20056;-88
2023/10/28 03:12:06;;;;;;;6.43;2.10;;;;;;;10.24;100.00;99229.50;4991405;28;20045;-88
2023/10/28 03:14:31;;;;;;;11.43;2.20;;;;;;;10.21;100.00;99227.09;4982802;28;20026;-88
2023/10/28 03:16:56;;;;;;;5.97;1.83;;;;;;;10.22;100.00;99234.28;4996594;28;20025;-88
2023/10/28 03:19:22;;;;;;;5.10;1.88;;;;;;;10.22;100.00;99229.66;4966810;28;20104;-89
2023/10/28 03:21:47;;;;;;;5.25;1.85;;;;;;;10.19;100.00;99231.88;4979534;28;20151;-89
2023/10/28 03:24:13;;;;;;;8.63;2.10;;;;;;;10.19;100.00;99232.72;4983682;28;20513;-89
2023/10/28 03:26:38;;;;;;;3.35;2.00;;;;;;;10.21;100.00;99229.81;4965037;28;20031;-89
2023/10/28 03:29:04;;;;;;;4.07;2.22;;;;;;;10.20;100.00;99230.84;4966921;28;20029;-89
2023/10/28 03:31:32;;;;;;;7.32;2.25;;;;;;;10.12;100.00;99218.81;4994107;28;20065;-89
2023/10/28 03:33:57;;;;;;;7.00;2.75;;;;;;;10.12;100.00;99229.75;4983272;28;20403;-89
2023/10/28 03:36:23;;;;;;;4.43;2.40;;;;;;;10.14;100.00;99226.03;4976442;28;20042;-89
2023/10/28 03:38:50;;;;;;;5.35;2.65;;;;;;;10.15;100.00;99241.41;4983693;28;20548;-89
2023/10/28 03:41:15;;;;;;;9.68;2.33;;;;;;;10.12;100.00;99227.03;4969172;28;20061;-90
2023/10/28 03:43:41;;;;;;;4.97;2.50;;;;;;;10.04;100.00;99232.44;4996389;28;20104;-89
2023/10/28 03:46:06;;;;;;;12.38;2.92;;;;;;;10.00;100.00;99233.78;4982797;28;20025;-88
2023/10/28 03:48:33;;;;;;;11.48;3.13;;;;;;;9.99;100.00;99232.06;4966294;28;20034;-88
2023/10/28 03:51:01;;;;;;;4.97;3.17;;;;;;;9.93;100.00;99227.22;4997772;28;20030;-88
2023/10/28 03:53:27;;;;;;;7.60;3.10;;;;;;;9.94;100.00;99231.66;5000693;28;20033;-89
2023/10/28 03:55:52;;;;;;;6.55;3.67;;;;;;;9.91;100.00;99234.72;4976073;28;20032;-88
2023/10/28 03:58:18;;;;;;;8.25;3.15;;;;;;;9.89;100.00;99236.75;5017944;28;20109;-89
2023/10/28 04:00:43;;;;;;;10.02;3.05;;;;;;;9.90;100.00;99241.19;4974262;28;20386;-89
2023/10/28 04:03:09;;;;;;;12.88;3.42;;;;;;;9.86;100.00;99234.34;4981696;28;20041;-89
2023/10/28 04:05:34;;;;;;;8.98;3.85;;;;;;;9.88;100.00;99235.03;4997581;28;20025;-88
2023/10/28 04:07:59;;;;;;;5.53;2.70;;;;;;;9.88;100.00;99235.03;4967308;28;20030;-88
2023/10/28 04:10:25;;;;;;;6.75;3.25;;;;;;;9.87;100.00;99227.84;4968089;28;20052;-88
2023/10/28 04:12:51;;;;;;;8.65;3.42;;;;;;;9.91;100.00;99226.53;4988044;28;20034;-88
2023/10/28 04:15:18;;;;;;;8.90;3.55;;;;;;;9.91;100.00;99230.09;4978572;28;20026;-87
2023/10/28 04:17:46;;;;;;;7.40;3.45;;;;;;;9.90;100.00;99233.00;4960034;28;20022;-87
2023/10/28 04:20:11;;;;;;;12.25;3.42;;;;;;;9.91;100.00;99219.16;4981175;28;20034;-87
2023/10/28 04:22:37;;;;;;;7.93;3.55;;;;;;;9.90;100.00;99224.78;4980437;28;20523;-87
2023/10/28 04:25:03;;;;;;;10.88;3.25;;;;;;;9.89;100.00;99223.09;4965655;28;20149;-88
2023/10/28 04:27:30;;;;;;;11.13;3.95;;;;;;;9.87;100.00;99205.97;5014953;28;20057;-88
2023/10/28 04:29:55;;;;;;;9.05;3.35;;;;;;;9.92;100.00;99220.03;4998815;28;20141;-91
2023/10/28 04:32:22;;;;;;;11.13;3.30;;;;;;;9.91;100.00;99213.69;4965032;28;20054;-90
2023/10/28 04:34:50;;;;;;;8.00;3.80;;;;;;;9.98;100.00;99210.34;4982534;28;20033;-90
2023/10/28 04:37:16;;;;;;;8.70;3.20;;;;;;;10.00;100.00;99211.91;4998819;28;20030;-90
2023/10/28 04:39:41;;;;;;;11.43;3.72;;;;;;;9.97;100.00;99212.22;4982674;28;20038;-91
2023/10/28 04:42:07;;;;;;;9.00;3.33;;;;;;;10.01;100.00;99210.88;4966184;28;20034;-91
2023/10/28 04:44:33;;;;;;;11.45;3.08;;;;;;;10.00;100.00;99206.44;4998653;28;20495;-89
2023/10/28 04:47:01;;;;;;;12.10;3.55;;;;;;;10.03;100.00;99211.56;4982390;28;20076;-90
2023/10/28 04:49:29;;;;;;;7.85;3.00;;;;;;;10.02;100.00;99206.25;4982213;28;20491;-90
2023/10/28 04:51:54;;;;;;;11.88;3.50;;;;;;;10.08;100.00;99213.81;4982340;28;20038;-91
2023/10/28 04:54:20;;;;;;;6.05;2.88;;;;;;;10.07;100.00;99207.50;4982182;28;20042;-91
2023/10/28 04:56:46;;;;;;;8.05;3.00;;;;;;;10.04;100.00;99207.81;4966572;28;20100;-91
2023/10/28 04:59:12;;;;;;;8.23;3.63;;;;;;;10.05;100.00;99206.81;4982694;28;20025;-90
2023/10/28 05:01:38;;;;;;;12.02;2.85;;;;;;;9.98;100.00;99205.72;4982847;28;20121;-90
2023/10/28 05:04:04;;;;;;;13.50;3.20;;;;;;;10.07;100.00;99193.84;4989291;28;20481;-90
2023/10/28 05:06:30;;;;;;;12.02;3.17;;;;;;;10.00;100.00;99192.78;4979060;28;20408;-90
2023/10/28 05:08:57;;;;;;;13.85;3.97;;;;;;;10.03;100.00;99197.03;4996034;28;20038;-91
2023/10/28 05:11:22;;;;;;;7.75;3.13;;;;;;;10.07;100.00;99193.00;4954799;28;20030;-90
2023/10/28 05:13:48;;;;;;;10.73;3.13;;;;;;;9.98;100.00;99188.47;4962394;28;20077;-90
2023/10/28 05:16:13;;;;;;;10.20;3.40;;;;;;;9.96;100.00;99191.34;4972940;28;20037;-90
2023/10/28 05:18:39;;;;;;;6.70;2.80;;;;;;;9.92;100.00;99199.03;4978780;28;20030;-90
2023/10/28 05:21:05;;;;;;;8.50;3.00;;;;;;;9.94;100.00;99194.25;4946716;28;20038;-90
2023/10/28 05:23:31;;;;;;;6.07;3.15;;;;;;;9.93;100.00;99194.41;4960468;28;20460;-90
2023/10/28 05:25:56;;;;;;;11.80;3.28;;;;;;;10.01;100.00;99196.34;4979226;28;20037;-89
2023/10/28 05:28:22;;;;;;;12.18;3.30;;;;;;;9.99;100.00;99198.41;4978496;28;20033;-90
2023/10/28 05:30:47;;;;;;;7.32;3.13;;;;;;;9.96;100.00;99199.56;4979488;28;20061;-89
2023/10/28 05:33:14;;;;;;;11.55;3.15;;;;;;;9.90;100.00;99195.59;4978910;28;20037;-91
2023/10/28 05:35:40;;;;;;;10.50;3.15;;;;;;;9.93;100.00;99194.41;4980713;28;20547;-91
2023/10/28 05:38:05;;;;;;;8.02;3.03;;;;;;;9.96;100.00;99206.91;4997538;28;20026;-89
2023/10/28 05:40:31;;;;;;;8.35;3.08;;;;;;;9.90;100.00;99192.88;5002875;28;20101;-89
2023/10/28 05:42:56;;;;;;;12.50;3.80;;;;;;;9.96;100.00;99195.97;4978291;28;20515;-91
2023/10/28 05:45:22;;;;;;;9.77;3.90;;;;;;;9.91;100.00;99200.03;4971968;28;20031;-91
2023/10/28 05:47:48;;;;;;;13.05;3.63;;;;;;;9.89;100.00;99201.22;4967506;28;20064;-90
2023/10/28 05:50:14;;;;;;;15.65;4.20;;;;;;;9.90;100.00;99202.91;4997780;28;20545;-89
2023/10/28 05:52:39;;;;;;;6.78;2.90;;;;;;;9.91;100.00;99204.66;4997088;28;20124;-89
2023/10/28 05:55:06;;;;;;;11.07;3.30;;;;;;;9.99;100.00;99203.88;4995940;28;20037;-87
2023/10/28 05:57:31;;;;;;;4.38;2.50;;;;;;;9.96;100.00;99210.50;4993008;28;20393;-87
2023/10/28 05:59:57;;;;;;;15.00;3.08;;;;;;;10.00;100.00;99211.03;4979277;28;20468;-87
2023/10/28 06:02:24;;;;;;;9.20;3.35;;;;;;;10.01;100.00;99216.34;4978531;28;20037;-88
2023/10/28 06:04:52;;;;;;;7.28;3.47;;;;;;;10.03;100.00;99214.31;4960770;28;20027;-89
2023/10/28 06:07:17;;;;;;;8.60;3.17;;;;;;;9.99;100.00;99218.38;4976766;28;20038;-88
2023/10/28 06:09:43;;;;;;;15.43;2.80;;;;;;;10.07;100.00;99215.72;4974957;28;20057;-88
2023/10/28 06:12:09;;;;;;;6.65;2.50;;;;;;;10.09;100.00;99216.41;4981664;28;20048;-86
2023/10/28 06:14:35;;;;;;;6.10;2.67;;;;;;;10.13;100.00;99219.69;4980057;28;20058;-87
2023/10/28 06:17:03;;;;;;;9.70;3.15;;;;;;;10.14;100.00;99223.28;4987496;28;20076;-90
2023/10/28 06:19:30;;;;;;;11.20;2.97;;;;;;;10.16;100.00;99222.09;4990852;28;20038;-90
2023/10/28 06:21:55;;;;;;;7.00;3.30;;;;;;;10.17;100.00;99218.34;4956960;28;20037;-91
2023/10/28 06:24:21;;;;;;;11.65;3.45;;;;;;;10.23;100.00;99216.84;4985148;28;20488;-91
2023/10/28 06:26:48;;;;;;;7.32;2.45;;;;;;;10.26;100.00;99222.88;4973732;28;20122;-89
2023/10/28 06:29:14;;;;;;;12.35;3.00;;;;;;;10.33;100.00;99222.25;4960862;28;20553;-90
2023/10/28 06:31:40;;;;;;;10.23;2.22;;;;;;;10.28;100.00;99225.41;4953467;28;20285;-90
2023/10/28 06:34:06;;;;;;;9.70;2.88;;;;;;;10.29;100.00;99227.16;4978979;28;20061;-88
2023/10/28 06:36:33;;;;;;;10.93;2.42;;;;;;;10.27;100.00;99224.56;5005007;28;20121;-88
2023/10/28 06:38:58;;;;;;;9.48;2.92;;;;;;;10.27;100.00;99227.31;4994477;28;20021;-88
2023/10/28 06:41:25;;;;;;;9.57;3.42;;;;;;;10.29;100.00;99235.34;4973177;28;20121;-86
2023/10/28 06:43:52;;;;;;;5.32;2.88;;;;;;;10.28;100.00;99234.50;4988577;28;20101;-88
2023/10/28 06:46:18;;;;;;;11.40;2.78;;;;;;;10.28;100.00;99237.25;4979055;28;20045;-89
2023/10/28 06:48:43;;;;;;;9.35;2.78;;;;;;;10.30;100.00;99235.19;4978171;28;20029;-86
2023/10/28 06:51:12;;;;;;;7.03;2.38;;;;;;;10.25;100.00;99233.97;4976513;28;20122;-86
2023/10/28 06:53:42;;;;;;;5.18;2.58;;;;;;;10.31;100.00;99236.03;4994342;28;20101;-87
2023/10/28 06:56:07;;;;;;;6.95;2.50;;;;;;;10.28;100.00;99230.88;4991979;28;20552;-88
2023/10/28 06:58:33;;;;;;;9.48;2.40;;;;;;;10.38;100.00;99231.69;4970907;28;20113;-91
2023/10/28 07:00:58;;;;;;;11.25;2.40;;;;;;;10.42;100.00;99230.34;4995254;28;20034;-88
2023/10/28 07:03:25;;;;;;;7.85;2.70;;;;;;;10.44;100.00;99228.28;4978700;28;20033;-88
2023/10/28 07:05:50;;;;;;;12.45;2.83;;;;;;;10.42;100.00;99227.59;4969441;28;20424;-88
2023/10/28 07:08:19;;;;;;;5.28;2.20;;;;;;;10.46;100.00;99228.13;4976988;28;20026;-90
2023/10/28 07:10:44;;;;;;;8.38;2.70;;;;;;;10.52;100.00;99232.97;4994363;28;20026;-88
2023/10/28 07:13:12;;;;;;;7.90;2.20;;;;;;;10.51;100.00;99239.50;4975702;28;20052;-86
2023/10/28 07:15:37;;;;;;;7.38;2.33;;;;;;;10.61;100.00;99231.16;4972251;28;20407;-88
2023/10/28 07:18:05;;;;;;;7.05;2.50;;;;;;;10.56;100.00;99239.84;4995733;28;20026;-88
2023/10/28 07:20:30;;;;;;;7.20;2.33;;;;;;;10.52;100.00;99237.59;4977442;28;20038;-88
2023/10/28 07:22:57;;;;;;;9.13;2.38;;;;;;;10.49;100.00;99244.25;5013644;28;20025;-89
2023/10/28 07:25:22;;;;;;;4.22;2.03;;;;;;;10.47;100.00;99241.66;4980158;28;20475;-88
2023/10/28 07:27:47;;;;;;;12.38;2.25;;;;;;;10.54;100.00;99241.03;4996371;28;20030;-88
2023/10/28 07:30:13;;;;;;;8.52;2.22;;;;;;;10.55;100.00;99250.97;4978604;28;20050;-88
2023/10/28 07:32:40;;;;;;;12.27;2.45;;;;;;;10.57;100.00;99251.66;4962820;28;20438;-88
2023/10/28 07:35:06;;;;;;;5.43;1.92;;;;;;;10.59;100.00;99252.34;4979516;28;20457;-88
2023/10/28 07:37:32;;;;;;;8.07;2.03;;;;;;;10.60;100.00;99259.53;4991591;28;20040;-87
2023/10/28 07:39:57;;;;;;;24.48;4.47;;;;;;;10.61;100.00;99255.81;4975264;28;20125;-87
2023/10/28 07:42:24;;;;;;;10.57;2.08;;;;;;;10.67;100.00;99266.06;4948464;28;20107;-88
2023/10/28 07:44:51;;;;;;;7.28;1.50;;;;;;;10.65;100.00;99258.03;4993232;28;20045;-88
2023/10/28 07:47:16;;;;;;;11.82;1.80;;;;;;;10.74;100.00;99261.69;4974921;28;20131;-88
2023/10/28 07:49:42;;;;;;;5.18;1.42;;;;;;;10.77;100.00;99263.22;4985439;28;20033;-88
2023/10/28 07:52:08;;;;;;;8.65;1.85;;;;;;;10.87;100.00;99263.09;4971338;28;20131;-91
2023/10/28 07:54:33;;;;;;;6.38;1.38;;;;;;;10.90;100.00;99260.91;4983519;28;20081;-91
2023/10/28 07:56:59;;;;;;;13.82;1.95;;;;;;;10.99;100.00;99272.78;4983998;28;20693;-91
2023/10/28 07:59:24;;;;;;;8.40;1.60;;;;;;;11.04;100.00;99267.66;4969379;28;20145;-91
2023/10/28 08:01:51;;;;;;;8.70;1.52;;;;;;;11.10;100.00;99275.22;4999090;28;20041;-91
2023/10/28 08:04:18;;;;;;;5.20;1.52;;;;;;;11.17;100.00;99269.94;4967961;28;20068;-92
2023/10/28 08:06:43;;;;;;;6.60;1.42;;;;;;;11.24;100.00;99272.88;4983375;28;20116;-90
2023/10/28 08:09:09;;;;;;;7.32;1.73;;;;;;;11.19;100.00;99271.47;4963607;28;20451;-91
2023/10/28 08:11:35;;;;;;;5.78;1.80;;;;;;;11.28;100.00;99274.25;4963956;28;20093;-92
2023/10/28 08:14:03;;;;;;;7.30;1.58;;;;;;;11.32;100.00;99272.91;4982890;28;20092;-91
2023/10/28 08:16:29;;;;;;;6.22;1.30;;;;;;;11.40;100.00;99283.91;5016579;28;20021;-90
2023/10/28 08:18:58;;;;;;;6.80;1.60;;;;;;;11.42;100.00;99283.75;4999234;28;20024;-91
2023/10/28 08:21:25;;;;;;;5.63;1.30;;;;;;;11.43;100.00;99285.44;4987921;28;20132;-90
2023/10/28 08:23:52;;;;;;;6.53;1.30;;;;;;;11.43;100.00;99285.44;4982773;28;20065;-91
2023/10/28 08:26:23;;;;;;;7.03;1.63;;;;;;;11.49;100.00;99293.84;4983774;28;20034;-92
2023/10/28 08:28:52;;;;;;;6.32;1.55;;;;;;;11.57;100.00;99282.91;4985626;28;20030;-92
2023/10/28 08:31:18;;;;;;;14.07;1.88;;;;;;;11.45;100.00;99297.13;4998678;28;20057;-90
2023/10/28 08:33:45;;;;;;;6.28;1.33;;;;;;;11.52;100.00;99301.75;4999331;28;20056;-91
2023/10/28 08:36:12;;;;;;;11.85;1.75;;;;;;;11.47;100.00;99293.16;4979889;28;20121;-91
2023/10/28 08:38:40;;;;;;;6.15;1.45;;;;;;;11.52;100.00;99301.75;4965117;28;20157;-87
2023/10/28 08:41:05;;;;;;;8.13;1.55;;;;;;;11.61;100.00;99305.38;4971382;28;20034;-86
2023/10/28 08:43:33;;;;;;;11.55;1.88;;;;;;;11.68;100.00;99314.66;4979055;28;20042;-86
2023/10/28 08:46:01;;;;;;;8.93;1.80;;;;;;;11.65;100.00;99312.25;4962716;28;20023;-85
2023/10/28 08:48:27;;;;;;;8.45;2.25;;;;;;;11.61;100.00;99312.72;4995355;28;20113;-86
2023/10/28 08:50:59;;;;;;;8.85;2.25;;;;;;;11.72;100.00;99318.78;4995178;28;20018;-86
2023/10/28 08:53:25;;;;;;;15.38;3.53;;;;;;;11.69;100.00;99323.72;4984960;28;20034;-86
2023/10/28 08:55:50;;;;;;;8.68;1.70;;;;;;;11.69;100.00;99320.97;4978801;28;21297;-85
2023/10/28 08:58:19;;;;;;;12.45;1.88;;;;;;;11.71;100.00;99327.19;4975466;28;20033;-85
2023/10/28 09:00:47;;;;;;;7.40;2.00;;;;;;;11.70;100.00;99328.19;4990785;28;20022;-85
2023/10/28 09:03:20;;;;;;;9.23;1.95;;;;;;;11.75;100.00;99326.66;4987900;28;20404;-85
2023/10/28 09:05:48;;;;;;;6.95;1.45;;;;;;;11.82;100.00;99323.25;4978912;28;20026;-85
2023/10/28 09:08:14;;;;;;;7.07;1.42;;;;;;;11.90;100.00;99323.28;4994350;28;20117;-85
2023/10/28 09:10:41;;;;;;;14.63;2.33;;;;;;;11.90;100.00;99335.13;4980142;28;20116;-87
2023/10/28 09:13:09;;;;;;;9.15;1.73;;;;;;;11.93;100.00;99333.94;4993407;28;20022;-86
2023/10/28 09:15:34;;;;;;;10.25;1.58;;;;;;;11.97;100.00;99331.72;4994690;28;20538;-86
2023/10/28 09:18:01;;;;;;;9.27;1.92;;;;;;;12.04;100.00;99333.63;4993977;28;20037;-86
2023/10/28 09:20:27;;;;;;;11.10;1.90;;;;;;;12.14;100.00;99341.69;4994716;28;20026;-86
2023/10/28 09:22:53;;;;;;;6.85;1.85;;;;;;;12.33;100.00;99335.03;4994146;28;20026;-86
2023/10/28 09:25:20;;;;;;;8.50;1.70;;;;;;;12.42;100.00;99334.00;4976702;28;20025;-86
2023/10/28 09:27:45;;;;;;;7.50;1.50;;;;;;;12.45;100.00;99335.56;5011908;28;20387;-85
2023/10/28 09:30:11;;;;;;;12.32;2.58;;;;;;;12.47;100.00;99333.50;4994095;28;20152;-86
2023/10/28 09:32:38;;;;;;;8.18;1.65;;;;;;;12.53;100.00;99337.41;4961263;28;20038;-85
2023/10/28 09:35:08;;;;;;;10.88;1.70;;;;;;;12.63;100.00;99330.72;4975349;28;20392;-86
2023/10/28 09:37:39;;;;;;;6.65;1.63;;;;;;;12.72;100.00;99331.56;4988065;28;20534;-86
2023/10/28 09:40:07;;;;;;;7.28;2.25;;;;;;;12.92;100.00;99325.72;5011566;28;20121;-86
2023/10/28 09:42:35;;;;;;;9.20;1.33;;;;;;;12.98;100.00;99322.28;5008232;28;20040;-85
2023/10/28 09:45:09;;;;;;;8.50;2.10;;;;;;;12.94;100.00;99323.69;4977780;28;20112;-86
2023/10/28 09:47:57;;;;;;;9.88;1.27;;;;;;;13.26;100.00;99327.34;4993927;28;20084;-86
2023/10/28 09:50:25;;;;;;;12.55;0.95;;;;;;;13.06;100.00;99320.34;4993278;28;20037;-86
2023/10/28 09:52:56;;;;;;;7.18;1.33;;;;;;;12.96;100.00;99322.44;5009416;28;20026;-86
2023/10/28 09:55:35;;;;;;;10.48;1.42;;;;;;;12.94;100.00;99316.28;4988896;28;20030;-86
2023/10/28 09:58:12;;;;;;;8.85;1.25;;;;;;;12.87;100.00;99328.97;4977037;28;20026;-85
2023/10/28 10:00:38;;;;;;;11.75;1.40;;;;;;;12.80;100.00;99330.72;5010757;28;20112;-86
2023/10/28 10:03:33;;;;;;;4.35;1.30;;;;;;;12.80;100.00;99330.72;4972042;28;20037;-86
2023/10/28 10:06:00;;;;;;;5.50;1.20;;;;;;;12.99;100.00;99332.25;5007416;28;20499;-85
2023/10/28 10:08:27;;;;;;;10.30;1.30;;;;;;;12.93;100.00;99332.94;4993212;28;20041;-85
2023/10/28 10:10:57;;;;;;;7.43;1.00;;;;;;;12.80;100.00;99338.97;4973606;28;20026;-86
2023/10/28 10:13:22;;;;;;;6.60;1.10;;;;;;;12.86;100.00;99336.38;4975693;28;20049;-86
2023/10/28 10:16:00;;;;;;;8.10;1.42;;;;;;;12.89;100.00;99335.19;4976867;28;20119;-85
2023/10/28 10:18:40;;;;;;;6.05;1.25;;;;;;;13.26;100.00;99341.09;5009637;28;20399;-86
2023/10/28 10:21:11;;;;;;;17.27;1.60;;;;;;;13.53;100.00;99331.59;4993247;28;20041;-87
2023/10/28 10:23:43;;;;;;;13.55;2.90;;;;;;;14.13;100.00;99330.91;5011996;28;20104;-89
2023/10/28 10:26:33;;;;;;;8.82;1.40;;;;;;;13.91;100.00;99335.34;4994247;28;20075;-88
2023/10/28 10:29:03;;;;;;;7.70;2.42;;;;;;;14.15;100.00;99331.59;4992090;28;20042;-88
2023/10/28 10:31:34;;;;;;;6.72;1.35;;;;;;;14.00;100.00;99327.03;4992769;28;20050;-87
2023/10/28 10:34:07;;;;;;;15.35;1.92;;;;;;;13.79;100.00;99332.16;5007185;28;20029;-87
2023/10/28 10:36:43;;;;;;;6.72;1.60;;;;;;;13.81;100.00;99337.47;4975356;28;20048;-86
2023/10/28 10:39:16;;;;;;;6.55;1.20;;;;;;;13.72;100.00;99327.53;4992973;28;20029;-86
2023/10/28 10:41:43;;;;;;;5.18;1.10;;;;;;;13.86;100.00;99325.94;4993147;28;20113;-86
2023/10/28 10:44:22;;;;;;;7.07;1.00;;;;;;;14.36;100.00;99334.69;4976269;28;20052;-87
2023/10/28 10:46:56;;;;;;;10.43;1.20;;;;;;;14.32;100.00;99334.22;4975059;28;20034;-86
2023/10/28 10:49:21;;;;;;;7.47;1.38;;;;;;;14.62;100.00;99324.19;4971408;28;20065;-88
2023/10/28 10:51:49;;;;;;;12.50;1.50;;;;;;;14.59;100.00;99323.66;4960684;28;20069;-87
2023/10/28 10:54:16;;;;;;;7.18;1.48;;;;;;;14.68;100.00;99317.09;4993489;28;20034;-87
2023/10/28 10:56:41;;;;;;;7.35;1.35;;;;;;;15.07;100.00;99322.38;5010250;28;20032;-87
2023/10/28 10:59:07;;;;;;;7.32;1.20;;;;;;;14.80;100.00;99326.59;4961498;28;20026;-87
2023/10/28 11:01:32;;;;;;;8.77;1.13;;;;;;;15.00;100.00;99317.78;4975639;28;20070;-87
2023/10/28 11:03:58;;;;;;;7.82;1.40;;;;;;;14.64;100.00;99312.97;4972566;28;20400;-87
2023/10/28 11:06:25;;;;;;;8.32;1.20;;;;;;;14.57;100.00;99317.50;4980472;28;20026;-87
2023/10/28 11:08:51;;;;;;;5.32;1.00;;;;;;;14.52;100.00;99318.88;4992427;28;20030;-87
2023/10/28 11:11:16;;;;;;;4.03;0.90;;;;;;;14.91;100.00;99316.19;4973433;28;20033;-86
2023/10/28 11:13:44;;;;;;;11.00;1.52;;;;;;;15.16;100.00;99320.38;4969857;28;20046;-88
2023/10/28 11:16:26;;;;;;;8.10;1.20;;;;;;;15.26;100.00;99317.34;4960531;28;20032;-86
2023/10/28 11:18:53;;;;;;;10.68;1.35;;;;;;;14.89;100.00;99313.63;4976604;28;20600;-87
2023/10/28 11:21:26;;;;;;;12.75;1.40;;;;;;;15.10;100.00;99306.50;4979720;28;20535;-87
2023/10/28 11:23:54;;;;;;;14.90;1.90;;;;;;;14.94;100.00;99310.25;4972819;28;20034;-88